Metar Aeropuerto Ibiza
Despejado
Despejado
STATION : LEIB
METAR : 2018/11/20 22:00 LEIB 202200Z 26016KT CAVOK 15/07 Q1006 NOSIG
WINDMPH : W at 18 mph
WIND : W at 18 mph (30 km/h)
VISIBILITY : greater than 7 miles (10 km)
CONDITIONS : Clear
TEMP : 59°F (15°C)
DEWPT : 45°F (7°C)
HUMIDITY : 59%
BAROMETER : 29.71 inHg (1006 hPa)
RAW-METAR : 2018/11/20 22:00 LEIB 202200Z 26016KT CAVOK 15/07 Q1006 NOSIG
 Publicidad